Bao An Cheng 69 — BVBD5 — position and weather

sailwx.info

Track history (hours):
 
Tides and Currents Weather Stations Pressure Air Temp Water Temp Dewpoint Dewpoint Depression Visibility Wind Speed Wind Dir Waves Ship Positions

Bao An Cheng 69

Last reported at 2016-Jul-29 10:19 UTC. Time now 2016-Jul-29 21:47 UTC.
Position N 24°24' E 118°33'.

Length 121 m; draft 4.3 m.

Type: Cargo ship. MMSI: 412703090.

Date/timePositionNaut miles runAvg speedWind from/ knotsBaromVisibWave heightAir tempDewpointWater temp
2016-Jul-29 10:19N 24°24' E 118°33'27 1.5
2016-Jul-28 16:08N 24°49' E 118°44'1 1.2
2016-Jul-28 15:16N 24°49' E 118°45'40 8.4
2016-Jul-28 10:30N 24°14' E 118°24'10 9.9
2016-Jul-28 09:32N 24°07' E 118°17'3210.7
2016-Jul-28 06:33N 23°48' E 117°49'1110.8
2016-Jul-28 05:33N 23°41' E 117°39'1010.5
2016-Jul-28 04:33N 23°35' E 117°30'37 9.1
2016-Jul-28 00:32N 23°18' E 116°55'8 8.0
2016-Jul-27 23:34N 23°18' E 116°47'4 3.1
2016-Jul-27 22:20N 23°21' E 116°43'0 0.0
2016-Jul-27 21:29N 23°21' E 116°43'0 0.0
2016-Jul-27 20:23N 23°21' E 116°43'0 0.0
2016-Jul-27 19:29N 23°21' E 116°43'0 0.0
2016-Jul-27 18:29N 23°21' E 116°43'0 0.0
2016-Jul-27 17:23N 23°21' E 116°43'0 0.0
2016-Jul-27 16:29N 23°21' E 116°43'0 0.0
2016-Jul-27 15:29N 23°21' E 116°43'0 0.0
2016-Jul-27 14:23N 23°21' E 116°43'0 0.0
2016-Jul-27 13:23N 23°21' E 116°43'0 0.0
2016-Jul-27 12:23N 23°21' E 116°43'0 0.0
2016-Jul-27 11:29N 23°21' E 116°43'0 0.0
2016-Jul-27 10:29N 23°21' E 116°43'0 0.0
2016-Jul-27 09:29N 23°21' E 116°43'0 0.0
2016-Jul-27 08:23N 23°21' E 116°43'0 0.0
2016-Jul-27 07:29N 23°21' E 116°43'0 0.0
2016-Jul-27 06:29N 23°21' E 116°43'0 0.0
2016-Jul-27 05:29N 23°21' E 116°43'0 0.0
2016-Jul-27 04:17N 23°21' E 116°43'0 0.0
2016-Jul-27 03:29N 23°21' E 116°43'0 0.0
2016-Jul-27 02:33N 23°21' E 116°43'3 3.0
2016-Jul-27 01:33N 23°19' E 116°46'7 6.6
2016-Jul-27 00:33N 23°17' E 116°53'50 7.9
2016-Jul-26 18:11N 23°42' E 117°41'21 7.4
2016-Jul-26 15:22N 23°55' E 117°59'25 8.2
2016-Jul-26 12:17N 24°11' E 118°20'6 8.7
2016-Jul-26 11:33N 24°15' E 118°25'11 8.2
2016-Jul-26 10:10N 24°24' E 118°33'5 8.8
2016-Jul-26 09:33N 24°28' E 118°37'9 8.7
2016-Jul-26 08:32N 24°35' E 118°43'9 8.3
2016-Jul-26 07:29N 24°43' E 118°47'6 6.4
2016-Jul-26 06:32N 24°49' E 118°46'2 2.1
2016-Jul-26 05:30N 24°49' E 118°43'0 0.0
2016-Jul-26 04:28N 24°49' E 118°43'0 0.0
2016-Jul-26 03:28N 24°49' E 118°43'0 0.0
2016-Jul-26 01:22N 24°49' E 118°43'0 0.0
2016-Jul-25 22:16N 24°49' E 118°43'0 0.0
2016-Jul-25 20:22N 24°49' E 118°43'0 0.0
2016-Jul-25 19:32N 24°49' E 118°43'0 0.0
2016-Jul-25 17:32N 24°49' E 118°43'0 0.0
2016-Jul-25 16:14N 24°49' E 118°43'0 0.0
2016-Jul-25 15:08N 24°49' E 118°43'0 0.0
2016-Jul-25 14:26N 24°49' E 118°43'0 0.0
2016-Jul-25 12:13N 24°49' E 118°43'0 0.0
2016-Jul-25 11:07N 24°49' E 118°43'0 0.4
2016-Jul-25 10:33N 24°49' E 118°43'4 3.5
2016-Jul-25 09:30N 24°48' E 118°47'1 0.9
2016-Jul-25 08:31N 24°47' E 118°48'0 0.1
2016-Jul-25 07:32N 24°47' E 118°47'3 2.5
2016-Jul-25 06:30N 24°44' E 118°48'9 9.8
2016-Jul-25 05:33N 24°36' E 118°44'10 9.9
2016-Jul-25 04:33N 24°28' E 118°37'1010.4
2016-Jul-25 03:33N 24°20' E 118°30'1010.2
2016-Jul-25 02:32N 24°13' E 118°22'10 9.9
2016-Jul-25 01:33N 24°06' E 118°14'10 9.5
2016-Jul-25 00:31N 23°60' E 118°06'19 8.5
2016-Jul-24 22:20N 23°48' E 117°50'6 8.1
2016-Jul-24 21:33N 23°44' E 117°44'8 7.8
2016-Jul-24 20:33N 23°40' E 117°38'3310.2
2016-Jul-24 17:19N 23°23' E 117°07'1010.4
2016-Jul-24 16:20N 23°18' E 116°57'8 9.6
2016-Jul-24 15:33N 23°16' E 116°49'7 7.0
2016-Jul-24 14:34N 23°21' E 116°43'0 0.4
2016-Jul-24 13:33N 23°21' E 116°44'0 0.0
2016-Jul-24 12:15N 23°21' E 116°44'0 0.0
2016-Jul-24 11:33N 23°21' E 116°44'0 0.0
2016-Jul-24 10:33N 23°21' E 116°44'0 0.0
2016-Jul-24 09:33N 23°21' E 116°44'0 0.0
2016-Jul-24 08:30N 23°21' E 116°44'0 0.0
2016-Jul-24 07:24N 23°21' E 116°44'0 0.0
2016-Jul-24 06:30N 23°21' E 116°44'0 0.0
2016-Jul-24 05:30N 23°21' E 116°44'0 0.0
2016-Jul-24 04:30N 23°21' E 116°44'0 0.0
2016-Jul-24 03:30N 23°21' E 116°44'0 0.0
2016-Jul-24 02:30N 23°21' E 116°44'0 0.0
2016-Jul-24 01:30N 23°21' E 116°44'0 0.0
2016-Jul-24 00:24N 23°21' E 116°44'0 0.0
2016-Jul-23 23:30N 23°21' E 116°44'0 0.0
2016-Jul-23 22:30N 23°21' E 116°44'0 0.0
2016-Jul-23 21:30N 23°21' E 116°44'0 0.0
2016-Jul-23 20:30N 23°21' E 116°44'0 0.0
2016-Jul-23 19:24N 23°21' E 116°44'0 0.0
2016-Jul-23 18:30N 23°21' E 116°44'0 0.0
2016-Jul-23 17:24N 23°21' E 116°44'0 0.1
2016-Jul-23 16:34N 23°21' E 116°44'7 6.5
2016-Jul-23 15:33N 23°16' E 116°49'1 1.1
2016-Jul-23 14:23N 23°16' E 116°50'0 0.0
2016-Jul-23 11:23N 23°16' E 116°50'0 0.0
2016-Jul-23 10:29N 23°16' E 116°50'3 2.9
2016-Jul-23 09:33N 23°17' E 116°53'9 8.9
2016-Jul-23 08:32N 23°21' E 117°02'31 7.8
2016-Jul-23 04:33N 23°36' E 117°32'7 7.0
2016-Jul-23 03:33N 23°40' E 117°38'7 6.8
2016-Jul-23 02:33N 23°44' E 117°43'8 7.4
2016-Jul-23 01:32N 23°49' E 117°50'10 8.1
2016-Jul-23 00:20N 23°55' E 117°59'8 8.5
2016-Jul-22 23:26N 23°59' E 118°05'8 8.7
2016-Jul-22 22:33N 24°04' E 118°12'9 8.7
2016-Jul-22 21:31N 24°10' E 118°19'19 9.2
2016-Jul-22 19:25N 24°24' E 118°34'27 8.6
2016-Jul-22 16:19N 24°47' E 118°48'4 5.7
2016-Jul-22 15:33N 24°49' E 118°43'0 0.0
2016-Jul-22 14:20N 24°49' E 118°43'0 0.0
2016-Jul-22 10:32N 24°49' E 118°43'0 0.0
2016-Jul-22 08:26N 24°49' E 118°43'0 0.0
2016-Jul-22 07:32N 24°49' E 118°43'0 0.0
2016-Jul-22 04:32N 24°49' E 118°43'0 0.0
2016-Jul-22 03:26N 24°49' E 118°43'0 0.0
2016-Jul-22 02:26N 24°49' E 118°43'0 0.0
2016-Jul-22 01:32N 24°49' E 118°43'0 0.0
2016-Jul-22 00:32N 24°49' E 118°43'5 4.4
2016-Jul-21 23:31N 24°47' E 118°48'1010.1
2016-Jul-21 22:34N 24°38' E 118°45'1010.0
2016-Jul-21 21:32N 24°30' E 118°39'10 9.5
2016-Jul-21 20:32N 24°22' E 118°32'9 8.6
2016-Jul-21 19:30N 24°16' E 118°26'8 8.7
2016-Jul-21 18:32N 24°10' E 118°19'9 9.1
2016-Jul-21 17:32N 24°04' E 118°12'10 9.8
2016-Jul-21 16:32N 23°58' E 118°03'2310.8
2016-Jul-21 14:22N 23°43' E 117°43'911.3
2016-Jul-21 13:33N 23°38' E 117°35'41 9.8
2016-Jul-21 09:20N 23°18' E 116°55'7 8.7
2016-Jul-21 08:33N 23°16' E 116°48'6 6.2
2016-Jul-21 07:32N 23°21' E 116°44'0 0.0
2016-Jul-21 06:32N 23°21' E 116°44'0 0.0
2016-Jul-21 05:32N 23°21' E 116°44'0 0.0
2016-Jul-21 04:26N 23°21' E 116°44'0 0.0
2016-Jul-21 03:32N 23°21' E 116°44'0 0.0
2016-Jul-21 02:32N 23°21' E 116°44'0 0.0
2016-Jul-21 01:26N 23°21' E 116°44'0 0.0
2016-Jul-21 00:32N 23°21' E 116°44'0 0.0
2016-Jul-20 23:32N 23°21' E 116°44'0 0.0
2016-Jul-20 22:31N 23°21' E 116°44'0 0.0
2016-Jul-20 21:30N 23°21' E 116°44'0 0.0
2016-Jul-20 20:30N 23°21' E 116°44'0 0.0
2016-Jul-20 19:30N 23°21' E 116°44'0 0.0
2016-Jul-20 18:24N 23°21' E 116°44'0 0.0
2016-Jul-20 17:30N 23°21' E 116°44'0 0.0
2016-Jul-20 16:30N 23°21' E 116°44'0 0.0
2016-Jul-20 15:30N 23°21' E 116°44'0 0.0
2016-Jul-20 14:30N 23°21' E 116°44'0 0.0
2016-Jul-20 13:24N 23°21' E 116°44'0 0.0
2016-Jul-20 12:30N 23°21' E 116°44'0 0.0
2016-Jul-20 11:30N 23°21' E 116°44'0 0.0
2016-Jul-20 10:30N 23°21' E 116°44'0 0.0
2016-Jul-20 09:30N 23°21' E 116°44'0 0.1
2016-Jul-20 08:30N 23°21' E 116°44'0 0.1
2016-Jul-20 07:24N 23°21' E 116°44'0 0.0
2016-Jul-20 06:30N 23°21' E 116°44'0 0.0
2016-Jul-20 05:30N 23°21' E 116°44'0 0.0
2016-Jul-20 04:30N 23°21' E 116°44'0 0.0
2016-Jul-20 03:30N 23°21' E 116°44'0 0.0
2016-Jul-20 02:33N 23°21' E 116°44'3 2.9
2016-Jul-20 01:33N 23°19' E 116°46'7 7.0
2016-Jul-20 00:33N 23°17' E 116°54'36 8.6
2016-Jul-19 20:21N 23°34' E 117°28'8 9.6
2016-Jul-19 19:33N 23°38' E 117°35'1010.0
2016-Jul-19 18:33N 23°44' E 117°44'23 9.5
2016-Jul-19 16:11N 23°58' E 118°03'6 8.8
2016-Jul-19 15:29N 24°02' E 118°09'  
Track history (hours):
 
Tides and Currents Weather Stations Pressure Air Temp Water Temp Dewpoint Dewpoint Depression Visibility Wind Speed Wind Dir Waves Ship Positions

Bao An Cheng 69

Last reported at 2016-Jul-29 10:19 UTC. Time now 2016-Jul-29 21:47 UTC.
Position N 24°24' E 118°33'.

Length 121 m; draft 4.3 m.

Type: Cargo ship. MMSI: 412703090.

Date/timePositionNaut miles runAvg speedWind from/ knotsBaromVisibWave heightAir tempDewpointWater temp
2016-Jul-29 10:19N 24°24' E 118°33'27 1.5
2016-Jul-28 16:08N 24°49' E 118°44'1 1.2
2016-Jul-28 15:16N 24°49' E 118°45'40 8.4
2016-Jul-28 10:30N 24°14' E 118°24'10 9.9
2016-Jul-28 09:32N 24°07' E 118°17'3210.7
2016-Jul-28 06:33N 23°48' E 117°49'1110.8
2016-Jul-28 05:33N 23°41' E 117°39'1010.5
2016-Jul-28 04:33N 23°35' E 117°30'37 9.1
2016-Jul-28 00:32N 23°18' E 116°55'8 8.0
2016-Jul-27 23:34N 23°18' E 116°47'4 3.1
2016-Jul-27 22:20N 23°21' E 116°43'0 0.0
2016-Jul-27 21:29N 23°21' E 116°43'0 0.0
2016-Jul-27 20:23N 23°21' E 116°43'0 0.0
2016-Jul-27 19:29N 23°21' E 116°43'0 0.0
2016-Jul-27 18:29N 23°21' E 116°43'0 0.0
2016-Jul-27 17:23N 23°21' E 116°43'0 0.0
2016-Jul-27 16:29N 23°21' E 116°43'0 0.0
2016-Jul-27 15:29N 23°21' E 116°43'0 0.0
2016-Jul-27 14:23N 23°21' E 116°43'0 0.0
2016-Jul-27 13:23N 23°21' E 116°43'0 0.0
2016-Jul-27 12:23N 23°21' E 116°43'0 0.0
2016-Jul-27 11:29N 23°21' E 116°43'0 0.0
2016-Jul-27 10:29N 23°21' E 116°43'0 0.0
2016-Jul-27 09:29N 23°21' E 116°43'0 0.0
2016-Jul-27 08:23N 23°21' E 116°43'0 0.0
2016-Jul-27 07:29N 23°21' E 116°43'0 0.0
2016-Jul-27 06:29N 23°21' E 116°43'0 0.0
2016-Jul-27 05:29N 23°21' E 116°43'0 0.0
2016-Jul-27 04:17N 23°21' E 116°43'0 0.0
2016-Jul-27 03:29N 23°21' E 116°43'0 0.0
2016-Jul-27 02:33N 23°21' E 116°43'3 3.0
2016-Jul-27 01:33N 23°19' E 116°46'7 6.6
2016-Jul-27 00:33N 23°17' E 116°53'50 7.9
2016-Jul-26 18:11N 23°42' E 117°41'21 7.4
2016-Jul-26 15:22N 23°55' E 117°59'25 8.2
2016-Jul-26 12:17N 24°11' E 118°20'6 8.7
2016-Jul-26 11:33N 24°15' E 118°25'11 8.2
2016-Jul-26 10:10N 24°24' E 118°33'5 8.8
2016-Jul-26 09:33N 24°28' E 118°37'9 8.7
2016-Jul-26 08:32N 24°35' E 118°43'9 8.3
2016-Jul-26 07:29N 24°43' E 118°47'6 6.4
2016-Jul-26 06:32N 24°49' E 118°46'2 2.1
2016-Jul-26 05:30N 24°49' E 118°43'0 0.0
2016-Jul-26 04:28N 24°49' E 118°43'0 0.0
2016-Jul-26 03:28N 24°49' E 118°43'0 0.0
2016-Jul-26 01:22N 24°49' E 118°43'0 0.0
2016-Jul-25 22:16N 24°49' E 118°43'0 0.0
2016-Jul-25 20:22N 24°49' E 118°43'0 0.0
2016-Jul-25 19:32N 24°49' E 118°43'0 0.0
2016-Jul-25 17:32N 24°49' E 118°43'0 0.0
2016-Jul-25 16:14N 24°49' E 118°43'0 0.0
2016-Jul-25 15:08N 24°49' E 118°43'0 0.0
2016-Jul-25 14:26N 24°49' E 118°43'0 0.0
2016-Jul-25 12:13N 24°49' E 118°43'0 0.0
2016-Jul-25 11:07N 24°49' E 118°43'0 0.4
2016-Jul-25 10:33N 24°49' E 118°43'4 3.5
2016-Jul-25 09:30N 24°48' E 118°47'1 0.9
2016-Jul-25 08:31N 24°47' E 118°48'0 0.1
2016-Jul-25 07:32N 24°47' E 118°47'3 2.5
2016-Jul-25 06:30N 24°44' E 118°48'9 9.8
2016-Jul-25 05:33N 24°36' E 118°44'10 9.9
2016-Jul-25 04:33N 24°28' E 118°37'1010.4
2016-Jul-25 03:33N 24°20' E 118°30'1010.2
2016-Jul-25 02:32N 24°13' E 118°22'10 9.9
2016-Jul-25 01:33N 24°06' E 118°14'10 9.5
2016-Jul-25 00:31N 23°60' E 118°06'19 8.5
2016-Jul-24 22:20N 23°48' E 117°50'6 8.1
2016-Jul-24 21:33N 23°44' E 117°44'8 7.8
2016-Jul-24 20:33N 23°40' E 117°38'3310.2
2016-Jul-24 17:19N 23°23' E 117°07'1010.4
2016-Jul-24 16:20N 23°18' E 116°57'8 9.6
2016-Jul-24 15:33N 23°16' E 116°49'7 7.0
2016-Jul-24 14:34N 23°21' E 116°43'0 0.4
2016-Jul-24 13:33N 23°21' E 116°44'0 0.0
2016-Jul-24 12:15N 23°21' E 116°44'0 0.0
2016-Jul-24 11:33N 23°21' E 116°44'0 0.0
2016-Jul-24 10:33N 23°21' E 116°44'0 0.0
2016-Jul-24 09:33N 23°21' E 116°44'0 0.0
2016-Jul-24 08:30N 23°21' E 116°44'0 0.0
2016-Jul-24 07:24N 23°21' E 116°44'0 0.0
2016-Jul-24 06:30N 23°21' E 116°44'0 0.0
2016-Jul-24 05:30N 23°21' E 116°44'0 0.0
2016-Jul-24 04:30N 23°21' E 116°44'0 0.0
2016-Jul-24 03:30N 23°21' E 116°44'0 0.0
2016-Jul-24 02:30N 23°21' E 116°44'0 0.0
2016-Jul-24 01:30N 23°21' E 116°44'0 0.0
2016-Jul-24 00:24N 23°21' E 116°44'0 0.0
2016-Jul-23 23:30N 23°21' E 116°44'0 0.0
2016-Jul-23 22:30N 23°21' E 116°44'0 0.0
2016-Jul-23 21:30N 23°21' E 116°44'0 0.0
2016-Jul-23 20:30N 23°21' E 116°44'0 0.0
2016-Jul-23 19:24N 23°21' E 116°44'0 0.0
2016-Jul-23 18:30N 23°21' E 116°44'0 0.0
2016-Jul-23 17:24N 23°21' E 116°44'0 0.1
2016-Jul-23 16:34N 23°21' E 116°44'7 6.5
2016-Jul-23 15:33N 23°16' E 116°49'1 1.1
2016-Jul-23 14:23N 23°16' E 116°50'0 0.0
2016-Jul-23 11:23N 23°16' E 116°50'0 0.0
2016-Jul-23 10:29N 23°16' E 116°50'3 2.9
2016-Jul-23 09:33N 23°17' E 116°53'9 8.9
2016-Jul-23 08:32N 23°21' E 117°02'31 7.8
2016-Jul-23 04:33N 23°36' E 117°32'7 7.0
2016-Jul-23 03:33N 23°40' E 117°38'7 6.8
2016-Jul-23 02:33N 23°44' E 117°43'8 7.4
2016-Jul-23 01:32N 23°49' E 117°50'10 8.1
2016-Jul-23 00:20N 23°55' E 117°59'8 8.5
2016-Jul-22 23:26N 23°59' E 118°05'8 8.7
2016-Jul-22 22:33N 24°04' E 118°12'9 8.7
2016-Jul-22 21:31N 24°10' E 118°19'19 9.2
2016-Jul-22 19:25N 24°24' E 118°34'27 8.6
2016-Jul-22 16:19N 24°47' E 118°48'4 5.7
2016-Jul-22 15:33N 24°49' E 118°43'0 0.0
2016-Jul-22 14:20N 24°49' E 118°43'0 0.0
2016-Jul-22 10:32N 24°49' E 118°43'0 0.0
2016-Jul-22 08:26N 24°49' E 118°43'0 0.0
2016-Jul-22 07:32N 24°49' E 118°43'0 0.0
2016-Jul-22 04:32N 24°49' E 118°43'0 0.0
2016-Jul-22 03:26N 24°49' E 118°43'0 0.0
2016-Jul-22 02:26N 24°49' E 118°43'0 0.0
2016-Jul-22 01:32N 24°49' E 118°43'0 0.0
2016-Jul-22 00:32N 24°49' E 118°43'5 4.4
2016-Jul-21 23:31N 24°47' E 118°48'1010.1
2016-Jul-21 22:34N 24°38' E 118°45'1010.0
2016-Jul-21 21:32N 24°30' E 118°39'10 9.5
2016-Jul-21 20:32N 24°22' E 118°32'9 8.6
2016-Jul-21 19:30N 24°16' E 118°26'8 8.7
2016-Jul-21 18:32N 24°10' E 118°19'9 9.1
2016-Jul-21 17:32N 24°04' E 118°12'10 9.8
2016-Jul-21 16:32N 23°58' E 118°03'2310.8
2016-Jul-21 14:22N 23°43' E 117°43'911.3
2016-Jul-21 13:33N 23°38' E 117°35'41 9.8
2016-Jul-21 09:20N 23°18' E 116°55'7 8.7
2016-Jul-21 08:33N 23°16' E 116°48'6 6.2
2016-Jul-21 07:32N 23°21' E 116°44'0 0.0
2016-Jul-21 06:32N 23°21' E 116°44'0 0.0
2016-Jul-21 05:32N 23°21' E 116°44'0 0.0
2016-Jul-21 04:26N 23°21' E 116°44'0 0.0
2016-Jul-21 03:32N 23°21' E 116°44'0 0.0
2016-Jul-21 02:32N 23°21' E 116°44'0 0.0
2016-Jul-21 01:26N 23°21' E 116°44'0 0.0
2016-Jul-21 00:32N 23°21' E 116°44'0 0.0
2016-Jul-20 23:32N 23°21' E 116°44'0 0.0
2016-Jul-20 22:31N 23°21' E 116°44'0 0.0
2016-Jul-20 21:30N 23°21' E 116°44'0 0.0
2016-Jul-20 20:30N 23°21' E 116°44'0 0.0
2016-Jul-20 19:30N 23°21' E 116°44'0 0.0
2016-Jul-20 18:24N 23°21' E 116°44'0 0.0
2016-Jul-20 17:30N 23°21' E 116°44'0 0.0
2016-Jul-20 16:30N 23°21' E 116°44'0 0.0
2016-Jul-20 15:30N 23°21' E 116°44'0 0.0
2016-Jul-20 14:30N 23°21' E 116°44'0 0.0
2016-Jul-20 13:24N 23°21' E 116°44'0 0.0
2016-Jul-20 12:30N 23°21' E 116°44'0 0.0
2016-Jul-20 11:30N 23°21' E 116°44'0 0.0
2016-Jul-20 10:30N 23°21' E 116°44'0 0.0
2016-Jul-20 09:30N 23°21' E 116°44'0 0.1
2016-Jul-20 08:30N 23°21' E 116°44'0 0.1
2016-Jul-20 07:24N 23°21' E 116°44'0 0.0
2016-Jul-20 06:30N 23°21' E 116°44'0 0.0
2016-Jul-20 05:30N 23°21' E 116°44'0 0.0
2016-Jul-20 04:30N 23°21' E 116°44'0 0.0
2016-Jul-20 03:30N 23°21' E 116°44'0 0.0
2016-Jul-20 02:33N 23°21' E 116°44'3 2.9
2016-Jul-20 01:33N 23°19' E 116°46'7 7.0
2016-Jul-20 00:33N 23°17' E 116°54'36 8.6
2016-Jul-19 20:21N 23°34' E 117°28'8 9.6
2016-Jul-19 19:33N 23°38' E 117°35'1010.0
2016-Jul-19 18:33N 23°44' E 117°44'23 9.5
2016-Jul-19 16:11N 23°58' E 118°03'6 8.8
2016-Jul-19 15:29N 24°02' E 118°09'  

Dump ship's entire track history